createdAt,value
2023-02-06T15:47:49.651Z,17.20
2023-02-06T15:50:20.040Z,17.80
2023-02-06T15:52:48.167Z,15.77
2023-02-06T15:55:27.723Z,16.70
2023-02-06T15:57:56.205Z,16.80
2023-02-06T16:00:25.938Z,14.77
2023-02-06T16:02:59.115Z,11.70
2023-02-06T16:05:31.997Z,11.03
2023-02-06T16:07:59.969Z,13.17
2023-02-06T16:10:30.007Z,15.97
2023-02-06T16:12:58.990Z,19.00
2023-02-06T16:15:30.561Z,18.63
2023-02-06T16:18:01.524Z,13.87
2023-02-06T16:20:36.931Z,15.47
2023-02-06T16:23:22.520Z,15.07
2023-02-06T16:26:00.852Z,16.70
2023-02-06T16:28:28.450Z,14.77
2023-02-06T16:30:57.428Z,15.90
2023-02-06T16:33:34.358Z,14.60
2023-02-06T16:36:02.244Z,15.73
2023-02-06T16:38:29.783Z,17.00
2023-02-06T16:40:57.691Z,18.03
2023-02-06T16:43:27.228Z,17.80
2023-02-06T16:45:54.897Z,16.57
2023-02-06T16:48:22.477Z,18.97
2023-02-06T16:50:51.358Z,20.07
2023-02-06T16:53:22.802Z,20.60
2023-02-06T16:55:51.030Z,19.07
2023-02-06T16:58:20.452Z,18.07
2023-02-06T17:00:48.852Z,24.10
2023-02-06T17:03:17.584Z,22.40
2023-02-06T17:05:45.849Z,37.53
2023-02-06T17:08:19.501Z,26.47
2023-02-06T17:10:47.687Z,65.97
2023-02-06T17:13:16.174Z,54.43
2023-02-06T17:15:44.174Z,32.25
2023-02-06T17:18:13.592Z,30.58
2023-02-06T17:20:42.480Z,38.70
2023-02-06T17:23:10.854Z,30.20
2023-02-06T17:25:40.361Z,26.00
2023-02-06T17:28:09.132Z,24.00
2023-02-06T17:30:38.167Z,26.37
2023-02-06T17:33:06.345Z,28.83
2023-02-06T17:35:36.644Z,21.50
2023-02-06T17:38:04.649Z,23.80
2023-02-06T17:40:34.763Z,23.13
2023-02-06T17:43:05.709Z,20.90
2023-02-06T17:45:33.661Z,23.67
2023-02-06T17:48:01.456Z,18.30
2023-02-06T17:50:29.957Z,18.67
2023-02-06T17:52:59.453Z,19.30
2023-02-06T17:55:28.619Z,21.20
2023-02-06T17:57:56.803Z,19.77
2023-02-06T18:00:26.426Z,28.33
2023-02-06T18:02:55.435Z,26.23
2023-02-06T18:05:23.507Z,23.57
2023-02-06T18:07:51.898Z,22.87
2023-02-06T18:10:20.825Z,24.43
2023-02-06T18:12:48.934Z,20.63
2023-02-06T18:15:16.927Z,16.77
2023-02-06T18:17:45.770Z,16.53
2023-02-06T18:20:13.661Z,17.53
2023-02-06T18:22:42.101Z,16.10
2023-02-06T18:25:10.779Z,15.07
2023-02-06T18:27:39.356Z,17.83
2023-02-06T18:30:07.800Z,15.57
2023-02-06T18:32:36.963Z,14.30
2023-02-06T18:35:06.700Z,13.67
2023-02-06T18:37:34.992Z,12.50
2023-02-06T18:40:02.763Z,14.50
2023-02-06T18:42:47.753Z,13.23
2023-02-06T18:45:15.488Z,13.97
2023-02-06T18:47:43.261Z,13.63
2023-02-06T18:50:12.789Z,11.57
2023-02-06T18:52:40.518Z,12.70
2023-02-06T18:55:09.226Z,12.23
2023-02-06T18:57:36.988Z,10.93
2023-02-06T19:00:06.170Z,11.57
2023-02-06T19:02:33.956Z,11.40
2023-02-06T19:05:01.738Z,10.60
2023-02-06T19:07:30.823Z,14.70
2023-02-06T19:09:58.927Z,15.23
2023-02-06T19:12:28.036Z,12.10
2023-02-06T19:14:55.965Z,13.10
2023-02-06T19:17:24.150Z,11.97
2023-02-06T19:19:51.967Z,11.83
2023-02-06T19:22:19.885Z,13.50
2023-02-06T19:24:51.032Z,10.93
2023-02-06T19:27:18.572Z,12.23
2023-02-06T19:29:46.239Z,13.07
2023-02-06T19:32:13.824Z,14.87
2023-02-06T19:34:42.200Z,13.13
2023-02-06T19:37:11.775Z,14.00
2023-02-06T19:39:40.398Z,12.93
2023-02-06T19:42:11.137Z,11.43
2023-02-06T19:44:38.973Z,12.50
2023-02-06T19:47:06.490Z,14.03
2023-02-06T19:49:34.265Z,25.27
2023-02-06T19:52:02.316Z,11.87
2023-02-06T19:54:29.972Z,15.63
2023-02-06T19:56:57.520Z,13.00
2023-02-06T19:59:28.545Z,13.83
2023-02-06T20:01:57.612Z,13.00
2023-02-06T20:04:27.415Z,12.70
2023-02-06T20:06:55.820Z,14.77
2023-02-06T20:09:24.446Z,12.60
2023-02-06T20:11:52.081Z,11.70
2023-02-06T20:14:20.179Z,12.67
2023-02-06T20:16:49.250Z,12.20
2023-02-06T20:19:18.671Z,12.87
2023-02-06T20:21:48.072Z,14.60
2023-02-06T20:24:18.420Z,14.83
2023-02-06T20:26:46.299Z,13.73
2023-02-06T20:29:20.286Z,24.47
2023-02-06T20:31:49.967Z,16.93
2023-02-06T20:34:18.225Z,14.50
2023-02-06T20:36:47.380Z,15.90
2023-02-06T20:39:15.759Z,21.33
2023-02-06T20:41:45.274Z,14.90
2023-02-06T20:44:14.193Z,16.40
2023-02-06T20:46:42.317Z,16.23
2023-02-06T20:49:14.983Z,26.87
2023-02-06T20:51:42.504Z,27.80
2023-02-06T20:54:11.540Z,20.43
2023-02-06T20:56:39.688Z,25.80
2023-02-06T20:59:07.825Z,29.47
2023-02-06T21:01:35.982Z,45.43
2023-02-06T21:04:05.153Z,48.73
2023-02-06T21:06:34.905Z,47.43
2023-02-06T21:09:03.159Z,29.47
2023-02-06T21:11:32.109Z,28.20
2023-02-06T21:14:01.618Z,27.70
2023-02-06T21:16:30.285Z,26.07
2023-02-06T21:18:58.766Z,20.83
2023-02-06T21:21:26.642Z,23.80
2023-02-06T21:23:56.569Z,28.73
2023-02-06T21:26:24.713Z,22.97
2023-02-06T21:28:52.681Z,21.67
2023-02-06T21:31:22.163Z,17.43
2023-02-06T21:33:51.302Z,16.03
2023-02-06T21:36:20.992Z,26.83
2023-02-06T21:38:48.611Z,21.07
2023-02-06T21:41:18.931Z,16.50
2023-02-06T21:43:46.678Z,17.97
2023-02-06T21:46:14.365Z,17.63
2023-02-06T21:48:42.285Z,16.87
2023-02-06T21:51:11.338Z,17.20
2023-02-06T21:53:39.231Z,16.83
2023-02-06T21:56:07.857Z,17.27
2023-02-06T21:58:36.910Z,14.43
2023-02-06T22:01:08.524Z,16.37
2023-02-06T22:03:36.585Z,18.93
2023-02-06T22:06:08.555Z,13.73
2023-02-06T22:08:36.468Z,12.30
2023-02-06T22:11:12.046Z,16.17
2023-02-06T22:13:41.118Z,14.83
2023-02-06T22:16:09.587Z,14.30
2023-02-06T22:18:37.481Z,14.57
2023-02-06T22:21:06.594Z,17.10
2023-02-06T22:23:34.243Z,15.33
2023-02-06T22:26:01.896Z,15.13
2023-02-06T22:28:29.466Z,14.50
2023-02-06T22:31:05.520Z,14.03
2023-02-06T22:33:33.157Z,14.20
2023-02-06T22:36:00.929Z,14.73
2023-02-06T22:38:28.439Z,14.50
2023-02-06T22:41:00.324Z,17.07
2023-02-06T22:43:28.224Z,17.10
2023-02-06T22:45:55.787Z,17.37
2023-02-06T22:48:24.793Z,14.83
2023-02-06T22:50:53.620Z,14.83
2023-02-06T22:53:31.749Z,16.40
2023-02-06T22:56:17.446Z,16.07
2023-02-06T22:58:44.944Z,16.67
2023-02-06T23:01:12.941Z,16.63
2023-02-06T23:03:41.922Z,16.20
2023-02-06T23:06:11.624Z,16.97
2023-02-06T23:08:39.867Z,18.93
2023-02-06T23:11:08.636Z,18.07
2023-02-06T23:13:36.968Z,16.37
2023-02-06T23:16:05.090Z,15.07
2023-02-06T23:18:32.897Z,17.70
2023-02-06T23:21:03.421Z,15.10
2023-02-06T23:23:31.032Z,16.67
2023-02-06T23:25:58.658Z,15.40
2023-02-06T23:28:27.606Z,13.20
2023-02-06T23:30:55.757Z,16.57
2023-02-06T23:33:23.949Z,24.80
2023-02-06T23:35:51.878Z,19.57
2023-02-06T23:38:21.008Z,17.10
2023-02-06T23:40:48.843Z,15.27
2023-02-06T23:43:16.369Z,14.70
2023-02-06T23:45:43.898Z,17.00
2023-02-06T23:48:11.770Z,18.53
2023-02-06T23:50:39.308Z,20.03
2023-02-06T23:53:06.865Z,20.70
2023-02-06T23:55:35.932Z,24.83
2023-02-06T23:58:03.719Z,19.83
